sensor_id;sensor_type;location;lat;lon;timestamp;pressure;altitude;pressure_sealevel;temperature;humidity
6094;BME280;19964;42.060;24.700;2022-11-15T00:01:16;98190.03;;;5.28;100.00
6094;BME280;19964;42.060;24.700;2022-11-15T00:03:43;98187.28;;;5.30;100.00
6094;BME280;19964;42.060;24.700;2022-11-15T00:06:14;98188.16;;;5.37;100.00
6094;BME280;19964;42.060;24.700;2022-11-15T00:08:41;98189.16;;;5.36;100.00
6094;BME280;19964;42.060;24.700;2022-11-15T00:11:11;98185.41;;;5.38;100.00
6094;BME280;19964;42.060;24.700;2022-11-15T00:13:38;98182.22;;;5.36;100.00
6094;BME280;19964;42.060;24.700;2022-11-15T00:16:05;98194.31;;;5.36;100.00
6094;BME280;19964;42.060;24.700;2022-11-15T00:18:32;98115.06;;;4.73;100.00
6094;BME280;19964;42.060;24.700;2022-11-15T00:21:04;98189.75;;;5.23;100.00
6094;BME280;19964;42.060;24.700;2022-11-15T00:23:33;98196.72;;;5.15;100.00
6094;BME280;19964;42.060;24.700;2022-11-15T00:26:00;98189.19;;;5.13;100.00
6094;BME280;19964;42.060;24.700;2022-11-15T00:28:27;98189.72;;;5.09;100.00
6094;BME280;19964;42.060;24.700;2022-11-15T00:30:54;98183.59;;;5.10;100.00
6094;BME280;19964;42.060;24.700;2022-11-15T00:33:26;98103.50;;;4.54;100.00
6094;BME280;19964;42.060;24.700;2022-11-15T00:35:53;98181.59;;;5.20;100.00
6094;BME280;19964;42.060;24.700;2022-11-15T00:38:19;98180.69;;;5.13;100.00
6094;BME280;19964;42.060;24.700;2022-11-15T00:40:48;98183.53;;;5.18;100.00
6094;BME280;19964;42.060;24.700;2022-11-15T00:43:15;98181.84;;;5.10;100.00
6094;BME280;19964;42.060;24.700;2022-11-15T00:45:42;98172.00;;;5.14;100.00
6094;BME280;19964;42.060;24.700;2022-11-15T00:48:09;98173.09;;;5.19;100.00
6094;BME280;19964;42.060;24.700;2022-11-15T00:50:36;98180.34;;;5.16;100.00
6094;BME280;19964;42.060;24.700;2022-11-15T00:53:03;98172.91;;;5.21;100.00
6094;BME280;19964;42.060;24.700;2022-11-15T00:55:30;98173.09;;;5.19;100.00
6094;BME280;19964;42.060;24.700;2022-11-15T00:57:58;98173.09;;;5.19;100.00
6094;BME280;19964;42.060;24.700;2022-11-15T01:00:25;98178.91;;;5.13;100.00
6094;BME280;19964;42.060;24.700;2022-11-15T01:02:52;98172.19;;;5.12;100.00
6094;BME280;19964;42.060;24.700;2022-11-15T01:05:19;98089.72;;;4.56;100.00
6094;BME280;19964;42.060;24.700;2022-11-15T01:07:46;98162.78;;;5.05;100.00
6094;BME280;19964;42.060;24.700;2022-11-15T01:10:13;98170.56;;;5.11;100.00
6094;BME280;19964;42.060;24.700;2022-11-15T01:12:40;98166.94;;;5.06;100.00
6094;BME280;19964;42.060;24.700;2022-11-15T01:15:08;98167.75;;;5.06;100.00
6094;BME280;19964;42.060;24.700;2022-11-15T01:17:35;98165.50;;;5.03;100.00
6094;BME280;19964;42.060;24.700;2022-11-15T01:20:07;98162.94;;;5.03;100.00
6094;BME280;19964;42.060;24.700;2022-11-15T01:22:34;98145.50;;;4.99;100.00
6094;BME280;19964;42.060;24.700;2022-11-15T01:25:01;98155.72;;;5.07;100.00
6094;BME280;19964;42.060;24.700;2022-11-15T01:27:28;98161.28;;;5.10;100.00
6094;BME280;19964;42.060;24.700;2022-11-15T01:29:55;98154.41;;;5.11;100.00
6094;BME280;19964;42.060;24.700;2022-11-15T01:32:23;98148.63;;;5.09;100.00
6094;BME280;19964;42.060;24.700;2022-11-15T01:34:50;98157.84;;;5.18;100.00
6094;BME280;19964;42.060;24.700;2022-11-15T01:37:17;98154.22;;;5.27;100.00
6094;BME280;19964;42.060;24.700;2022-11-15T01:39:44;98143.69;;;5.22;100.00
6094;BME280;19964;42.060;24.700;2022-11-15T01:42:12;98141.22;;;5.28;100.00
6094;BME280;19964;42.060;24.700;2022-11-15T01:44:44;98147.00;;;5.30;100.00
6094;BME280;19964;42.060;24.700;2022-11-15T01:47:15;98141.13;;;5.36;100.00
6094;BME280;19964;42.060;24.700;2022-11-15T01:49:49;98144.25;;;5.32;100.00
6094;BME280;19964;42.060;24.700;2022-11-15T01:52:19;98144.25;;;5.32;100.00
6094;BME280;19964;42.060;24.700;2022-11-15T01:54:49;98146.53;;;5.27;100.00
6094;BME280;19964;42.060;24.700;2022-11-15T01:57:17;98138.91;;;5.33;100.00
6094;BME280;19964;42.060;24.700;2022-11-15T01:59:45;98137.94;;;5.34;100.00
6094;BME280;19964;42.060;24.700;2022-11-15T02:02:12;98134.94;;;5.31;100.00
6094;BME280;19964;42.060;24.700;2022-11-15T02:04:41;98133.97;;;5.32;100.00
6094;BME280;19964;42.060;24.700;2022-11-15T02:07:11;98144.31;;;5.38;100.00
6094;BME280;19964;42.060;24.700;2022-11-15T02:09:39;98136.78;;;5.37;100.00
6094;BME280;19964;42.060;24.700;2022-11-15T02:12:08;98143.72;;;5.51;100.00
6094;BME280;19964;42.060;24.700;2022-11-15T02:14:37;98143.81;;;5.58;100.00
6094;BME280;19964;42.060;24.700;2022-11-15T02:17:21;98147.78;;;5.60;100.00
6094;BME280;19964;42.060;24.700;2022-11-15T02:20:14;98147.09;;;5.66;100.00
6094;BME280;19964;42.060;24.700;2022-11-15T02:23:08;98087.53;;;5.33;100.00
6094;BME280;19964;42.060;24.700;2022-11-15T02:25:43;98133.00;;;5.62;100.00
6094;BME280;19964;42.060;24.700;2022-11-15T02:28:46;98141.41;;;5.71;100.00
6094;BME280;19964;42.060;24.700;2022-11-15T02:31:20;98133.34;;;5.74;100.00
6094;BME280;19964;42.060;24.700;2022-11-15T02:33:56;98133.97;;;5.76;100.00
6094;BME280;19964;42.060;24.700;2022-11-15T02:36:34;98055.13;;;5.32;100.00
6094;BME280;19964;42.060;24.700;2022-11-15T02:39:08;98133.19;;;5.90;100.00
6094;BME280;19964;42.060;24.700;2022-11-15T02:41:45;98126.47;;;5.89;100.00
6094;BME280;19964;42.060;24.700;2022-11-15T02:44:17;98134.06;;;5.97;100.00
6094;BME280;19964;42.060;24.700;2022-11-15T02:46:50;98117.41;;;5.93;100.00
6094;BME280;19964;42.060;24.700;2022-11-15T02:49:37;98115.41;;;6.09;100.00
6094;BME280;19964;42.060;24.700;2022-11-15T02:52:05;98121.06;;;6.19;100.00
6094;BME280;19964;42.060;24.700;2022-11-15T02:54:33;98121.06;;;6.19;100.00
6094;BME280;19964;42.060;24.700;2022-11-15T02:57:02;98105.47;;;6.21;100.00
6094;BME280;19964;42.060;24.700;2022-11-15T03:00:01;98125.56;;;6.32;100.00
6094;BME280;19964;42.060;24.700;2022-11-15T03:02:55;98124.59;;;6.33;100.00
6094;BME280;19964;42.060;24.700;2022-11-15T03:05:30;98118.13;;;6.22;100.00
6094;BME280;19964;42.060;24.700;2022-11-15T03:08:06;98124.78;;;6.32;100.00
6094;BME280;19964;42.060;24.700;2022-11-15T03:10:42;98028.41;;;5.77;100.00
6094;BME280;19964;42.060;24.700;2022-11-15T03:13:19;98104.72;;;6.27;100.00
6094;BME280;19964;42.060;24.700;2022-11-15T03:15:53;98120.59;;;6.30;100.00
6094;BME280;19964;42.060;24.700;2022-11-15T03:18:29;98123.66;;;6.19;100.00
6094;BME280;19964;42.060;24.700;2022-11-15T03:21:00;98125.69;;;6.24;100.00
6094;BME280;19964;42.060;24.700;2022-11-15T03:23:30;98127.50;;;6.30;100.00
6094;BME280;19964;42.060;24.700;2022-11-15T03:26:00;98121.94;;;6.26;100.00
6094;BME280;19964;42.060;24.700;2022-11-15T03:28:34;98122.63;;;6.35;100.00
6094;BME280;19964;42.060;24.700;2022-11-15T03:31:03;98109.97;;;6.19;100.00
6094;BME280;19964;42.060;24.700;2022-11-15T03:33:55;98125.13;;;6.28;100.00
6094;BME280;19964;42.060;24.700;2022-11-15T03:36:25;98123.03;;;6.17;100.00
6094;BME280;19964;42.060;24.700;2022-11-15T03:38:53;98113.72;;;6.16;100.00
6094;BME280;19964;42.060;24.700;2022-11-15T03:41:25;98114.88;;;6.14;100.00
6094;BME280;19964;42.060;24.700;2022-11-15T03:43:57;98104.50;;;6.07;100.00
6094;BME280;19964;42.060;24.700;2022-11-15T03:46:33;98112.00;;;5.88;100.00
6094;BME280;19964;42.060;24.700;2022-11-15T03:49:06;98108.00;;;5.85;100.00
6094;BME280;19964;42.060;24.700;2022-11-15T03:51:35;98100.03;;;5.80;100.00
6094;BME280;19964;42.060;24.700;2022-11-15T03:54:02;98097.28;;;5.67;100.00
6094;BME280;19964;42.060;24.700;2022-11-15T03:56:30;98068.34;;;5.44;100.00
6094;BME280;19964;42.060;24.700;2022-11-15T03:58:57;98092.78;;;5.55;100.00
6094;BME280;19964;42.060;24.700;2022-11-15T04:01:24;98088.41;;;5.40;100.00
6094;BME280;19964;42.060;24.700;2022-11-15T04:03:51;98076.75;;;5.38;100.00
6094;BME280;19964;42.060;24.700;2022-11-15T04:06:19;98069.03;;;5.38;100.00
6094;BME280;19964;42.060;24.700;2022-11-15T04:08:46;98089.25;;;5.56;100.00
6094;BME280;19964;42.060;24.700;2022-11-15T04:11:12;98048.59;;;5.30;100.00
6094;BME280;19964;42.060;24.700;2022-11-15T04:13:39;98079.66;;;5.64;100.00
6094;BME280;19964;42.060;24.700;2022-11-15T04:16:06;98077.50;;;5.68;100.00
6094;BME280;19964;42.060;24.700;2022-11-15T04:18:33;98062.47;;;5.50;100.00
6094;BME280;19964;42.060;24.700;2022-11-15T04:21:00;98076.63;;;5.75;100.00
6094;BME280;19964;42.060;24.700;2022-11-15T04:23:46;98070.06;;;5.58;100.00
6094;BME280;19964;42.060;24.700;2022-11-15T04:26:30;98065.66;;;5.52;100.00
6094;BME280;19964;42.060;24.700;2022-11-15T04:28:57;98069.47;;;5.41;100.00
6094;BME280;19964;42.060;24.700;2022-11-15T04:31:41;98069.47;;;5.41;100.00
6094;BME280;19964;42.060;24.700;2022-11-15T04:34:08;98065.22;;;5.49;100.00
6094;BME280;19964;42.060;24.700;2022-11-15T04:36:35;98068.50;;;5.28;100.00
6094;BME280;19964;42.060;24.700;2022-11-15T04:39:20;98072.13;;;5.33;100.00
6094;BME280;19964;42.060;24.700;2022-11-15T04:41:47;98052.81;;;5.23;100.00
6094;BME280;19964;42.060;24.700;2022-11-15T04:44:14;98076.47;;;5.33;100.00
6094;BME280;19964;42.060;24.700;2022-11-15T04:46:41;98041.94;;;5.06;100.00
6094;BME280;19964;42.060;24.700;2022-11-15T04:49:08;98076.13;;;5.21;100.00
6094;BME280;19964;42.060;24.700;2022-11-15T04:51:35;98064.69;;;5.24;100.00
6094;BME280;19964;42.060;24.700;2022-11-15T04:54:02;98062.72;;;5.11;100.00
6094;BME280;19964;42.060;24.700;2022-11-15T04:56:31;98072.91;;;5.19;100.00
6094;BME280;19964;42.060;24.700;2022-11-15T04:58:58;98033.88;;;4.95;100.00
6094;BME280;19964;42.060;24.700;2022-11-15T05:01:24;98075.31;;;5.21;100.00
6094;BME280;19964;42.060;24.700;2022-11-15T05:03:51;98064.41;;;5.19;100.00
6094;BME280;19964;42.060;24.700;2022-11-15T05:06:35;98046.59;;;4.88;100.00
6094;BME280;19964;42.060;24.700;2022-11-15T05:09:02;98066.38;;;5.02;100.00
6094;BME280;19964;42.060;24.700;2022-11-15T05:11:31;98067.16;;;5.03;100.00
6094;BME280;19964;42.060;24.700;2022-11-15T05:13:58;98064.31;;;4.98;100.00
6094;BME280;19964;42.060;24.700;2022-11-15T05:16:25;97988.53;;;4.58;100.00
6094;BME280;19964;42.060;24.700;2022-11-15T05:18:52;98061.78;;;5.12;100.00
6094;BME280;19964;42.060;24.700;2022-11-15T05:21:19;98035.88;;;4.99;100.00
6094;BME280;19964;42.060;24.700;2022-11-15T05:23:49;97961.19;;;4.50;100.00
6094;BME280;19964;42.060;24.700;2022-11-15T05:26:17;98062.66;;;5.19;100.00
6094;BME280;19964;42.060;24.700;2022-11-15T05:28:46;98062.56;;;5.27;100.00
6094;BME280;19964;42.060;24.700;2022-11-15T05:31:14;98063.44;;;5.34;100.00
6094;BME280;19964;42.060;24.700;2022-11-15T05:33:42;98044.59;;;5.27;100.00
6094;BME280;19964;42.060;24.700;2022-11-15T05:36:14;98069.13;;;5.44;100.00
6094;BME280;19964;42.060;24.700;2022-11-15T05:38:43;98073.91;;;5.48;100.00
6094;BME280;19964;42.060;24.700;2022-11-15T05:41:11;97976.50;;;4.88;100.00
6094;BME280;19964;42.060;24.700;2022-11-15T05:43:40;98071.13;;;5.64;100.00
6094;BME280;19964;42.060;24.700;2022-11-15T05:46:09;98067.31;;;5.74;100.00
6094;BME280;19964;42.060;24.700;2022-11-15T05:48:37;98056.16;;;5.67;100.00
6094;BME280;19964;42.060;24.700;2022-11-15T05:51:07;98070.94;;;5.80;100.00
6094;BME280;19964;42.060;24.700;2022-11-15T05:53:34;98073.09;;;5.91;100.00
6094;BME280;19964;42.060;24.700;2022-11-15T05:56:03;98073.09;;;5.91;100.00
6094;BME280;19964;42.060;24.700;2022-11-15T05:58:31;97984.09;;;5.39;100.00
6094;BME280;19964;42.060;24.700;2022-11-15T06:00:58;98082.53;;;6.05;100.00
6094;BME280;19964;42.060;24.700;2022-11-15T06:03:27;98075.88;;;6.10;100.00
6094;BME280;19964;42.060;24.700;2022-11-15T06:05:54;98012.09;;;5.70;100.00
6094;BME280;19964;42.060;24.700;2022-11-15T06:08:21;98082.91;;;6.23;100.00
6094;BME280;19964;42.060;24.700;2022-11-15T06:10:48;98075.44;;;6.28;100.00
6094;BME280;19964;42.060;24.700;2022-11-15T06:13:15;98090.22;;;6.41;100.00
6094;BME280;19964;42.060;24.700;2022-11-15T06:15:42;98090.28;;;6.47;100.00
6094;BME280;19964;42.060;24.700;2022-11-15T06:18:09;98088.75;;;6.74;100.00
6094;BME280;19964;42.060;24.700;2022-11-15T06:20:37;98093.03;;;7.15;100.00
6094;BME280;19964;42.060;24.700;2022-11-15T06:23:05;98094.94;;;7.75;100.00
6094;BME280;19964;42.060;24.700;2022-11-15T06:25:32;98106.00;;;8.17;100.00
6094;BME280;19964;42.060;24.700;2022-11-15T06:27:59;98029.78;;;8.21;100.00
6094;BME280;19964;42.060;24.700;2022-11-15T06:30:26;98032.81;;;8.70;100.00
6094;BME280;19964;42.060;24.700;2022-11-15T06:32:59;98120.63;;;9.42;100.00
6094;BME280;19964;42.060;24.700;2022-11-15T06:35:27;98121.34;;;9.75;100.00
6094;BME280;19964;42.060;24.700;2022-11-15T06:37:55;98111.78;;;9.75;97.90
6094;BME280;19964;42.060;24.700;2022-11-15T06:40:22;98128.91;;;9.70;96.80
6094;BME280;19964;42.060;24.700;2022-11-15T06:42:49;98125.19;;;9.53;98.63
6094;BME280;19964;42.060;24.700;2022-11-15T06:45:16;98134.81;;;9.97;96.93
6094;BME280;19964;42.060;24.700;2022-11-15T06:47:44;98064.94;;;9.97;92.70
6094;BME280;19964;42.060;24.700;2022-11-15T06:50:12;98147.75;;;10.78;88.86
6094;BME280;19964;42.060;24.700;2022-11-15T06:52:39;98154.63;;;10.98;87.29
6094;BME280;19964;42.060;24.700;2022-11-15T06:55:08;98138.63;;;10.45;88.64
6094;BME280;19964;42.060;24.700;2022-11-15T06:57:36;98138.25;;;10.35;90.61
6094;BME280;19964;42.060;24.700;2022-11-15T07:00:03;98118.22;;;10.86;89.24
6094;BME280;19964;42.060;24.700;2022-11-15T07:02:30;98126.09;;;11.22;85.73
6094;BME280;19964;42.060;24.700;2022-11-15T07:04:57;98138.16;;;11.78;83.48
6094;BME280;19964;42.060;24.700;2022-11-15T07:07:24;98140.13;;;12.30;81.21
6094;BME280;19964;42.060;24.700;2022-11-15T07:09:54;98139.75;;;12.86;78.49
6094;BME280;19964;42.060;24.700;2022-11-15T07:12:22;98139.72;;;13.38;75.84
6094;BME280;19964;42.060;24.700;2022-11-15T07:14:49;98135.25;;;13.85;73.46
6094;BME280;19964;42.060;24.700;2022-11-15T07:17:16;98133.91;;;14.34;71.82
6094;BME280;19964;42.060;24.700;2022-11-15T07:19:43;98128.00;;;14.83;68.83
6094;BME280;19964;42.060;24.700;2022-11-15T07:22:09;98131.63;;;13.98;68.74
6094;BME280;19964;42.060;24.700;2022-11-15T07:24:36;98122.69;;;14.62;68.72
6094;BME280;19964;42.060;24.700;2022-11-15T07:27:03;98117.53;;;13.13;73.64
6094;BME280;19964;42.060;24.700;2022-11-15T07:29:31;98088.50;;;12.75;78.21
6094;BME280;19964;42.060;24.700;2022-11-15T07:31:58;98115.06;;;13.18;75.97
6094;BME280;19964;42.060;24.700;2022-11-15T07:34:25;98116.88;;;13.17;75.46
6094;BME280;19964;42.060;24.700;2022-11-15T07:36:52;98116.97;;;13.22;76.82
6094;BME280;19964;42.060;24.700;2022-11-15T07:39:19;98124.00;;;13.57;78.04
6094;BME280;19964;42.060;24.700;2022-11-15T07:41:46;98120.03;;;13.54;74.76
6094;BME280;19964;42.060;24.700;2022-11-15T07:44:14;98115.59;;;12.97;77.09
6094;BME280;19964;42.060;24.700;2022-11-15T07:46:42;98119.69;;;13.51;75.90
6094;BME280;19964;42.060;24.700;2022-11-15T07:49:09;98117.50;;;14.22;74.93
6094;BME280;19964;42.060;24.700;2022-11-15T07:51:36;98113.09;;;13.60;75.03
6094;BME280;19964;42.060;24.700;2022-11-15T07:54:03;98116.16;;;13.68;73.85
6094;BME280;19964;42.060;24.700;2022-11-15T07:56:30;98114.09;;;14.78;71.39
6094;BME280;19964;42.060;24.700;2022-11-15T07:58:57;98120.44;;;15.15;68.30
6094;BME280;19964;42.060;24.700;2022-11-15T08:01:24;98114.66;;;16.11;67.91
6094;BME280;19964;42.060;24.700;2022-11-15T08:03:52;98112.66;;;14.70;68.82
6094;BME280;19964;42.060;24.700;2022-11-15T08:06:19;98112.06;;;13.84;71.52
6094;BME280;19964;42.060;24.700;2022-11-15T08:08:46;98101.69;;;14.40;71.46
6094;BME280;19964;42.060;24.700;2022-11-15T08:11:16;98087.78;;;14.35;69.10
6094;BME280;19964;42.060;24.700;2022-11-15T08:13:43;98111.88;;;14.13;70.37
6094;BME280;19964;42.060;24.700;2022-11-15T08:16:10;98111.06;;;14.53;68.86
6094;BME280;19964;42.060;24.700;2022-11-15T08:18:37;98037.50;;;13.55;67.19
6094;BME280;19964;42.060;24.700;2022-11-15T08:21:05;98108.72;;;13.14;68.60
6094;BME280;19964;42.060;24.700;2022-11-15T08:23:32;98108.13;;;13.70;67.15
6094;BME280;19964;42.060;24.700;2022-11-15T08:26:01;98100.59;;;14.24;67.93
6094;BME280;19964;42.060;24.700;2022-11-15T08:28:28;98102.56;;;14.46;68.10
6094;BME280;19964;42.060;24.700;2022-11-15T08:30:55;98106.84;;;14.52;66.85
6094;BME280;19964;42.060;24.700;2022-11-15T08:33:22;98108.00;;;15.22;64.63
6094;BME280;19964;42.060;24.700;2022-11-15T08:35:49;98109.34;;;14.58;63.95
6094;BME280;19964;42.060;24.700;2022-11-15T08:38:18;98028.66;;;13.95;66.05
6094;BME280;19964;42.060;24.700;2022-11-15T08:40:44;98101.44;;;14.86;64.48
6094;BME280;19964;42.060;24.700;2022-11-15T08:43:11;98006.75;;;13.40;66.52
6094;BME280;19964;42.060;24.700;2022-11-15T08:45:38;98087.72;;;13.78;66.90
6094;BME280;19964;42.060;24.700;2022-11-15T08:48:05;98108.03;;;14.04;66.58
6094;BME280;19964;42.060;24.700;2022-11-15T08:50:32;98096.81;;;14.44;66.66
6094;BME280;19964;42.060;24.700;2022-11-15T08:53:04;98052.09;;;13.56;67.35
6094;BME280;19964;42.060;24.700;2022-11-15T08:55:38;98085.56;;;13.75;69.29
6094;BME280;19964;42.060;24.700;2022-11-15T08:58:05;98088.56;;;13.67;67.93
6094;BME280;19964;42.060;24.700;2022-11-15T09:00:32;98090.91;;;12.99;69.19
6094;BME280;19964;42.060;24.700;2022-11-15T09:02:59;98008.00;;;12.45;70.71
6094;BME280;19964;42.060;24.700;2022-11-15T09:05:29;98082.09;;;13.58;70.03
6094;BME280;19964;42.060;24.700;2022-11-15T09:07:56;98076.16;;;14.70;68.43
6094;BME280;19964;42.060;24.700;2022-11-15T09:10:23;98073.47;;;14.82;64.64
6094;BME280;19964;42.060;24.700;2022-11-15T09:12:57;98049.75;;;13.94;67.03
6094;BME280;19964;42.060;24.700;2022-11-15T09:15:27;98063.06;;;13.58;68.38
6094;BME280;19964;42.060;24.700;2022-11-15T09:17:57;98050.94;;;13.12;71.30
6094;BME280;19964;42.060;24.700;2022-11-15T09:20:24;97982.91;;;12.50;71.50
6094;BME280;19964;42.060;24.700;2022-11-15T09:22:51;98048.63;;;13.38;70.58
6094;BME280;19964;42.060;24.700;2022-11-15T09:25:18;98041.97;;;13.31;70.78
6094;BME280;19964;42.060;24.700;2022-11-15T09:27:45;98034.16;;;13.31;69.28
6094;BME280;19964;42.060;24.700;2022-11-15T09:30:13;98036.59;;;13.61;69.46
6094;BME280;19964;42.060;24.700;2022-11-15T09:32:40;98031.41;;;13.49;70.19
6094;BME280;19964;42.060;24.700;2022-11-15T09:35:07;98024.16;;;14.19;67.90
6094;BME280;19964;42.060;24.700;2022-11-15T09:37:34;98020.00;;;14.84;65.83
6094;BME280;19964;42.060;24.700;2022-11-15T09:40:01;97926.44;;;14.71;65.22
6094;BME280;19964;42.060;24.700;2022-11-15T09:42:40;98023.59;;;15.76;63.47
6094;BME280;19964;42.060;24.700;2022-11-15T09:45:20;98022.16;;;14.71;64.50
6094;BME280;19964;42.060;24.700;2022-11-15T09:48:07;97990.63;;;13.94;66.78
6094;BME280;19964;42.060;24.700;2022-11-15T09:50:41;98023.41;;;14.35;64.14
6094;BME280;19964;42.060;24.700;2022-11-15T09:53:22;98020.25;;;14.33;63.92
6094;BME280;19964;42.060;24.700;2022-11-15T09:55:58;98015.72;;;14.00;66.14
6094;BME280;19964;42.060;24.700;2022-11-15T09:58:32;98007.03;;;13.95;67.70
6094;BME280;19964;42.060;24.700;2022-11-15T10:01:10;97994.63;;;13.85;69.63
6094;BME280;19964;42.060;24.700;2022-11-15T10:03:40;97990.94;;;13.98;67.48
6094;BME280;19964;42.060;24.700;2022-11-15T10:06:17;97994.03;;;13.15;70.52
6094;BME280;19964;42.060;24.700;2022-11-15T10:08:51;97989.00;;;13.37;68.20
6094;BME280;19964;42.060;24.700;2022-11-15T10:11:25;97985.38;;;13.78;67.65
6094;BME280;19964;42.060;24.700;2022-11-15T10:13:56;97892.78;;;13.42;68.48
6094;BME280;19964;42.060;24.700;2022-11-15T10:19:28;97975.34;;;13.58;68.05
6094;BME280;19964;42.060;24.700;2022-11-15T10:22:11;97969.94;;;13.48;68.32
6094;BME280;19964;42.060;24.700;2022-11-15T10:24:43;97963.31;;;13.40;68.47
6094;BME280;19964;42.060;24.700;2022-11-15T10:27:13;97961.50;;;13.69;68.79
6094;BME280;19964;42.060;24.700;2022-11-15T10:29:45;97961.09;;;13.61;68.42
6094;BME280;19964;42.060;24.700;2022-11-15T10:32:15;97965.41;;;13.15;69.49
6094;BME280;19964;42.060;24.700;2022-11-15T10:34:43;97945.09;;;13.40;69.54
6094;BME280;19964;42.060;24.700;2022-11-15T10:37:10;97930.69;;;13.50;69.14
6094;BME280;19964;42.060;24.700;2022-11-15T10:39:37;97945.38;;;14.28;68.66
6094;BME280;19964;42.060;24.700;2022-11-15T10:42:25;97949.56;;;13.57;68.36
6094;BME280;19964;42.060;24.700;2022-11-15T10:44:52;97931.59;;;14.00;66.50
6094;BME280;19964;42.060;24.700;2022-11-15T10:47:26;97925.59;;;14.16;66.84
6094;BME280;19964;42.060;24.700;2022-11-15T10:49:59;97950.34;;;14.47;66.15
6094;BME280;19964;42.060;24.700;2022-11-15T10:52:27;97916.91;;;14.27;66.37
6094;BME280;19964;42.060;24.700;2022-11-15T10:54:58;97926.84;;;14.80;65.17
6094;BME280;19964;42.060;24.700;2022-11-15T10:57:31;97931.97;;;14.75;63.26
6094;BME280;19964;42.060;24.700;2022-11-15T11:00:01;97924.66;;;14.55;64.20
6094;BME280;19964;42.060;24.700;2022-11-15T11:02:33;97925.19;;;14.57;64.81
6094;BME280;19964;42.060;24.700;2022-11-15T11:05:01;97923.16;;;15.19;64.42
6094;BME280;19964;42.060;24.700;2022-11-15T11:07:31;97920.78;;;15.17;62.70
6094;BME280;19964;42.060;24.700;2022-11-15T11:10:04;97910.34;;;14.58;64.51
6094;BME280;19964;42.060;24.700;2022-11-15T11:12:34;97908.75;;;14.73;63.89
6094;BME280;19964;42.060;24.700;2022-11-15T11:15:10;97919.56;;;14.82;62.57
6094;BME280;19964;42.060;24.700;2022-11-15T11:17:56;97883.81;;;14.11;65.08
6094;BME280;19964;42.060;24.700;2022-11-15T11:20:28;97897.88;;;14.10;66.47
6094;BME280;19964;42.060;24.700;2022-11-15T11:23:15;97890.84;;;14.60;64.56
6094;BME280;19964;42.060;24.700;2022-11-15T11:25:51;97892.25;;;14.18;64.67
6094;BME280;19964;42.060;24.700;2022-11-15T11:28:36;97875.34;;;13.71;66.47
6094;BME280;19964;42.060;24.700;2022-11-15T11:31:24;97876.53;;;13.63;66.83
6094;BME280;19964;42.060;24.700;2022-11-15T11:34:02;97873.06;;;13.74;66.91
6094;BME280;19964;42.060;24.700;2022-11-15T11:36:38;97864.47;;;13.74;67.67
6094;BME280;19964;42.060;24.700;2022-11-15T11:39:18;97859.75;;;13.71;66.98
6094;BME280;19964;42.060;24.700;2022-11-15T11:41:57;97767.38;;;13.12;67.21
6094;BME280;19964;42.060;24.700;2022-11-15T11:44:44;97851.09;;;13.54;68.13
6094;BME280;19964;42.060;24.700;2022-11-15T11:47:21;97840.84;;;13.47;67.49
6094;BME280;19964;42.060;24.700;2022-11-15T11:49:52;97847.88;;;13.18;68.13
6094;BME280;19964;42.060;24.700;2022-11-15T11:52:24;97823.38;;;13.03;69.31
6094;BME280;19964;42.060;24.700;2022-11-15T11:55:00;97841.31;;;13.16;69.16
6094;BME280;19964;42.060;24.700;2022-11-15T11:57:34;97846.31;;;13.62;67.99
6094;BME280;19964;42.060;24.700;2022-11-15T12:00:15;97859.06;;;13.47;67.60
6094;BME280;19964;42.060;24.700;2022-11-15T12:02:47;97845.19;;;13.58;67.38
6094;BME280;19964;42.060;24.700;2022-11-15T12:05:21;97831.69;;;13.45;67.87
6094;BME280;19964;42.060;24.700;2022-11-15T12:07:50;97832.06;;;13.36;67.96
6094;BME280;19964;42.060;24.700;2022-11-15T12:10:23;97789.75;;;13.13;68.37
6094;BME280;19964;42.060;24.700;2022-11-15T12:12:56;97817.50;;;13.52;68.84
6094;BME280;19964;42.060;24.700;2022-11-15T12:15:27;97785.94;;;13.04;68.46
6094;BME280;19964;42.060;24.700;2022-11-15T12:17:57;97810.25;;;12.98;69.15
6094;BME280;19964;42.060;24.700;2022-11-15T12:20:33;97802.16;;;12.83;71.59
6094;BME280;19964;42.060;24.700;2022-11-15T12:23:05;97798.94;;;12.64;71.90
6094;BME280;19964;42.060;24.700;2022-11-15T12:25:41;97799.81;;;12.81;71.06
6094;BME280;19964;42.060;24.700;2022-11-15T12:28:16;97797.72;;;12.55;71.07
6094;BME280;19964;42.060;24.700;2022-11-15T12:30:50;97787.94;;;12.85;71.29
6094;BME280;19964;42.060;24.700;2022-11-15T12:33:31;97784.94;;;12.65;72.15
6094;BME280;19964;42.060;24.700;2022-11-15T12:36:02;97784.97;;;12.82;71.86
6094;BME280;19964;42.060;24.700;2022-11-15T12:38:54;97773.81;;;12.81;72.07
6094;BME280;19964;42.060;24.700;2022-11-15T12:41:22;97740.38;;;12.73;71.93
6094;BME280;19964;42.060;24.700;2022-11-15T12:43:49;97773.00;;;12.81;71.30
6094;BME280;19964;42.060;24.700;2022-11-15T12:49:42;97768.59;;;12.41;72.21
6094;BME280;19964;42.060;24.700;2022-11-15T12:52:11;97770.53;;;12.46;73.51
6094;BME280;19964;42.060;24.700;2022-11-15T12:57:49;97747.66;;;12.08;73.77
6094;BME280;19964;42.060;24.700;2022-11-15T13:00:46;97751.34;;;12.24;74.07
6094;BME280;19964;42.060;24.700;2022-11-15T13:03:27;97744.97;;;12.03;74.18
6094;BME280;19964;42.060;24.700;2022-11-15T13:06:38;97744.81;;;12.10;74.53
6094;BME280;19964;42.060;24.700;2022-11-15T13:12:09;97736.81;;;12.00;75.98
6094;BME280;19964;42.060;24.700;2022-11-15T13:14:48;97733.66;;;11.98;76.42
6094;BME280;19964;42.060;24.700;2022-11-15T13:17:36;97740.56;;;11.69;77.34
6094;BME280;19964;42.060;24.700;2022-11-15T13:20:21;97733.78;;;11.68;78.00
6094;BME280;19964;42.060;24.700;2022-11-15T13:22:50;97728.59;;;11.80;77.95
6094;BME280;19964;42.060;24.700;2022-11-15T13:25:27;97717.66;;;11.89;77.08
6094;BME280;19964;42.060;24.700;2022-11-15T13:28:10;97723.50;;;11.73;77.94
6094;BME280;19964;42.060;24.700;2022-11-15T13:30:39;97725.06;;;11.62;78.68
6094;BME280;19964;42.060;24.700;2022-11-15T13:33:09;97725.97;;;11.56;78.87